sensor_id;sensor_type;location;lat;lon;timestamp;P1;durP1;ratioP1;P2;durP2;ratioP2
70558;SDS011;58108;48.094;11.838;2022-09-17T00:00:20;6.80;;;2.90;;
70558;SDS011;58108;48.094;11.838;2022-09-17T00:02:50;8.05;;;2.85;;
70558;SDS011;58108;48.094;11.838;2022-09-17T00:05:18;5.73;;;2.70;;
70558;SDS011;58108;48.094;11.838;2022-09-17T00:07:43;5.73;;;3.20;;
70558;SDS011;58108;48.094;11.838;2022-09-17T00:10:09;5.68;;;3.10;;
70558;SDS011;58108;48.094;11.838;2022-09-17T00:12:34;6.73;;;3.30;;
70558;SDS011;58108;48.094;11.838;2022-09-17T00:14:59;6.90;;;3.33;;
70558;SDS011;58108;48.094;11.838;2022-09-17T00:17:25;7.13;;;3.13;;
70558;SDS011;58108;48.094;11.838;2022-09-17T00:19:50;6.53;;;3.73;;
70558;SDS011;58108;48.094;11.838;2022-09-17T00:22:16;7.03;;;3.88;;
70558;SDS011;58108;48.094;11.838;2022-09-17T00:24:41;6.87;;;3.70;;
70558;SDS011;58108;48.094;11.838;2022-09-17T00:27:06;5.43;;;2.43;;
70558;SDS011;58108;48.094;11.838;2022-09-17T00:29:32;6.70;;;3.30;;
70558;SDS011;58108;48.094;11.838;2022-09-17T00:31:57;6.40;;;3.30;;
70558;SDS011;58108;48.094;11.838;2022-09-17T00:34:23;7.03;;;3.00;;
70558;SDS011;58108;48.094;11.838;2022-09-17T00:36:48;6.00;;;2.28;;
70558;SDS011;58108;48.094;11.838;2022-09-17T00:39:13;3.50;;;2.00;;
70558;SDS011;58108;48.094;11.838;2022-09-17T00:41:40;4.00;;;1.70;;
70558;SDS011;58108;48.094;11.838;2022-09-17T00:49:58;6.13;;;2.05;;
70558;SDS011;58108;48.094;11.838;2022-09-17T00:52:35;6.22;;;1.70;;
70558;SDS011;58108;48.094;11.838;2022-09-17T00:55:25;3.30;;;1.10;;
70558;SDS011;58108;48.094;11.838;2022-09-17T00:58:00;4.68;;;1.38;;
70558;SDS011;58108;48.094;11.838;2022-09-17T01:00:28;5.72;;;1.23;;
70558;SDS011;58108;48.094;11.838;2022-09-17T01:02:55;3.33;;;0.57;;
70558;SDS011;58108;48.094;11.838;2022-09-17T01:05:25;4.23;;;0.87;;
70558;SDS011;58108;48.094;11.838;2022-09-17T01:08:01;5.80;;;0.80;;
70558;SDS011;58108;48.094;11.838;2022-09-17T01:19:11;1.63;;;0.40;;
70558;SDS011;58108;48.094;11.838;2022-09-17T01:22:11;2.72;;;0.70;;
70558;SDS011;58108;48.094;11.838;2022-09-17T01:33:34;3.08;;;0.50;;
70558;SDS011;58108;48.094;11.838;2022-09-17T01:38:53;2.72;;;0.60;;
70558;SDS011;58108;48.094;11.838;2022-09-17T01:41:26;2.72;;;0.70;;
70558;SDS011;58108;48.094;11.838;2022-09-17T01:44:01;3.53;;;0.50;;
70558;SDS011;58108;48.094;11.838;2022-09-17T01:46:36;2.60;;;0.60;;
70558;SDS011;58108;48.094;11.838;2022-09-17T01:49:06;2.35;;;0.65;;
70558;SDS011;58108;48.094;11.838;2022-09-17T01:51:35;2.50;;;0.70;;
70558;SDS011;58108;48.094;11.838;2022-09-17T01:54:12;2.83;;;0.60;;
70558;SDS011;58108;48.094;11.838;2022-09-17T01:56:48;2.10;;;0.60;;
70558;SDS011;58108;48.094;11.838;2022-09-17T01:59:26;2.08;;;0.50;;
70558;SDS011;58108;48.094;11.838;2022-09-17T02:02:10;2.20;;;0.55;;
70558;SDS011;58108;48.094;11.838;2022-09-17T02:04:41;3.80;;;0.90;;
70558;SDS011;58108;48.094;11.838;2022-09-17T02:07:21;2.33;;;0.68;;
70558;SDS011;58108;48.094;11.838;2022-09-17T02:09:57;3.23;;;0.97;;
70558;SDS011;58108;48.094;11.838;2022-09-17T02:12:30;2.90;;;0.98;;
70558;SDS011;58108;48.094;11.838;2022-09-17T02:15:01;2.97;;;1.10;;
70558;SDS011;58108;48.094;11.838;2022-09-17T02:17:34;3.25;;;1.13;;
70558;SDS011;58108;48.094;11.838;2022-09-17T02:20:06;4.30;;;1.10;;
70558;SDS011;58108;48.094;11.838;2022-09-17T02:22:41;3.43;;;1.03;;
70558;SDS011;58108;48.094;11.838;2022-09-17T02:27:48;2.60;;;0.90;;
70558;SDS011;58108;48.094;11.838;2022-09-17T02:30:16;4.05;;;1.20;;
70558;SDS011;58108;48.094;11.838;2022-09-17T02:32:41;2.67;;;1.10;;
70558;SDS011;58108;48.094;11.838;2022-09-17T02:35:08;3.10;;;1.00;;
70558;SDS011;58108;48.094;11.838;2022-09-17T02:37:37;3.70;;;1.30;;
70558;SDS011;58108;48.094;11.838;2022-09-17T02:40:03;3.95;;;1.35;;
70558;SDS011;58108;48.094;11.838;2022-09-17T02:42:38;3.55;;;1.20;;
70558;SDS011;58108;48.094;11.838;2022-09-17T02:56:25;2.58;;;0.85;;
70558;SDS011;58108;48.094;11.838;2022-09-17T02:59:15;3.70;;;1.17;;
70558;SDS011;58108;48.094;11.838;2022-09-17T03:04:32;2.53;;;0.88;;
70558;SDS011;58108;48.094;11.838;2022-09-17T03:07:04;1.92;;;0.57;;
70558;SDS011;58108;48.094;11.838;2022-09-17T03:09:33;2.70;;;0.70;;
70558;SDS011;58108;48.094;11.838;2022-09-17T03:11:58;5.13;;;0.90;;
70558;SDS011;58108;48.094;11.838;2022-09-17T03:14:24;3.40;;;1.10;;
70558;SDS011;58108;48.094;11.838;2022-09-17T03:16:49;3.67;;;0.88;;
70558;SDS011;58108;48.094;11.838;2022-09-17T03:19:14;2.78;;;0.65;;
70558;SDS011;58108;48.094;11.838;2022-09-17T03:21:39;2.50;;;0.57;;
70558;SDS011;58108;48.094;11.838;2022-09-17T03:24:05;2.50;;;0.80;;
70558;SDS011;58108;48.094;11.838;2022-09-17T03:26:30;3.50;;;0.63;;
70558;SDS011;58108;48.094;11.838;2022-09-17T03:28:55;3.17;;;0.80;;
70558;SDS011;58108;48.094;11.838;2022-09-17T03:31:22;2.72;;;0.60;;
70558;SDS011;58108;48.094;11.838;2022-09-17T03:33:47;2.90;;;0.77;;
70558;SDS011;58108;48.094;11.838;2022-09-17T03:36:14;2.58;;;0.70;;
70558;SDS011;58108;48.094;11.838;2022-09-17T03:38:39;4.50;;;1.00;;
70558;SDS011;58108;48.094;11.838;2022-09-17T03:41:05;2.57;;;0.80;;
70558;SDS011;58108;48.094;11.838;2022-09-17T03:43:31;3.15;;;0.93;;
70558;SDS011;58108;48.094;11.838;2022-09-17T03:45:57;2.55;;;0.70;;
70558;SDS011;58108;48.094;11.838;2022-09-17T03:48:22;2.58;;;0.63;;
70558;SDS011;58108;48.094;11.838;2022-09-17T03:50:47;3.50;;;0.90;;
70558;SDS011;58108;48.094;11.838;2022-09-17T03:53:13;2.20;;;0.70;;
70558;SDS011;58108;48.094;11.838;2022-09-17T03:55:39;3.22;;;0.93;;
70558;SDS011;58108;48.094;11.838;2022-09-17T03:58:05;2.22;;;0.43;;
70558;SDS011;58108;48.094;11.838;2022-09-17T04:00:31;3.47;;;0.77;;
70558;SDS011;58108;48.094;11.838;2022-09-17T04:02:56;2.88;;;0.80;;
70558;SDS011;58108;48.094;11.838;2022-09-17T04:05:21;2.53;;;0.60;;
70558;SDS011;58108;48.094;11.838;2022-09-17T04:07:47;2.63;;;0.73;;
70558;SDS011;58108;48.094;11.838;2022-09-17T04:10:13;4.53;;;0.80;;
70558;SDS011;58108;48.094;11.838;2022-09-17T04:12:38;3.22;;;0.80;;
70558;SDS011;58108;48.094;11.838;2022-09-17T04:15:04;2.20;;;0.50;;
70558;SDS011;58108;48.094;11.838;2022-09-17T04:17:30;2.20;;;0.60;;
70558;SDS011;58108;48.094;11.838;2022-09-17T04:19:55;1.90;;;0.40;;
70558;SDS011;58108;48.094;11.838;2022-09-17T04:22:21;3.67;;;0.60;;
70558;SDS011;58108;48.094;11.838;2022-09-17T04:24:46;4.82;;;0.90;;
70558;SDS011;58108;48.094;11.838;2022-09-17T04:27:12;3.00;;;0.70;;
70558;SDS011;58108;48.094;11.838;2022-09-17T04:29:37;2.87;;;0.93;;
70558;SDS011;58108;48.094;11.838;2022-09-17T04:32:02;4.03;;;0.97;;
70558;SDS011;58108;48.094;11.838;2022-09-17T04:34:28;3.37;;;0.80;;
70558;SDS011;58108;48.094;11.838;2022-09-17T04:36:53;3.90;;;0.70;;
70558;SDS011;58108;48.094;11.838;2022-09-17T04:39:19;3.60;;;1.13;;
70558;SDS011;58108;48.094;11.838;2022-09-17T04:41:44;3.50;;;0.98;;
70558;SDS011;58108;48.094;11.838;2022-09-17T04:44:09;3.67;;;0.40;;
70558;SDS011;58108;48.094;11.838;2022-09-17T04:46:35;2.63;;;0.70;;
70558;SDS011;58108;48.094;11.838;2022-09-17T04:49:00;2.20;;;0.60;;
70558;SDS011;58108;48.094;11.838;2022-09-17T04:51:25;5.03;;;0.70;;
70558;SDS011;58108;48.094;11.838;2022-09-17T04:53:51;1.57;;;0.40;;
70558;SDS011;58108;48.094;11.838;2022-09-17T04:56:16;3.65;;;0.80;;
70558;SDS011;58108;48.094;11.838;2022-09-17T04:58:41;2.50;;;0.70;;
70558;SDS011;58108;48.094;11.838;2022-09-17T05:01:07;2.17;;;0.80;;
70558;SDS011;58108;48.094;11.838;2022-09-17T05:03:32;2.30;;;0.60;;
70558;SDS011;58108;48.094;11.838;2022-09-17T05:05:57;2.23;;;0.47;;
70558;SDS011;58108;48.094;11.838;2022-09-17T05:08:23;4.60;;;0.80;;
70558;SDS011;58108;48.094;11.838;2022-09-17T05:10:49;3.83;;;0.60;;
70558;SDS011;58108;48.094;11.838;2022-09-17T05:13:15;2.53;;;0.80;;
70558;SDS011;58108;48.094;11.838;2022-09-17T05:15:40;2.30;;;0.70;;
70558;SDS011;58108;48.094;11.838;2022-09-17T05:18:06;3.10;;;0.90;;
70558;SDS011;58108;48.094;11.838;2022-09-17T05:20:31;3.30;;;0.70;;
70558;SDS011;58108;48.094;11.838;2022-09-17T05:22:56;2.70;;;0.70;;
70558;SDS011;58108;48.094;11.838;2022-09-17T05:25:22;2.40;;;0.53;;
70558;SDS011;58108;48.094;11.838;2022-09-17T05:27:48;2.92;;;0.80;;
70558;SDS011;58108;48.094;11.838;2022-09-17T05:30:15;2.38;;;0.70;;
70558;SDS011;58108;48.094;11.838;2022-09-17T05:32:40;4.70;;;0.73;;
70558;SDS011;58108;48.094;11.838;2022-09-17T05:35:06;3.23;;;0.77;;
70558;SDS011;58108;48.094;11.838;2022-09-17T05:37:32;2.42;;;0.65;;
70558;SDS011;58108;48.094;11.838;2022-09-17T05:39:58;2.80;;;0.60;;
70558;SDS011;58108;48.094;11.838;2022-09-17T05:42:23;2.40;;;0.63;;
70558;SDS011;58108;48.094;11.838;2022-09-17T05:44:48;2.00;;;0.50;;
70558;SDS011;58108;48.094;11.838;2022-09-17T05:47:14;2.60;;;0.50;;
70558;SDS011;58108;48.094;11.838;2022-09-17T05:49:39;3.00;;;0.80;;
70558;SDS011;58108;48.094;11.838;2022-09-17T05:52:04;2.53;;;0.97;;
70558;SDS011;58108;48.094;11.838;2022-09-17T05:54:30;3.13;;;0.60;;
70558;SDS011;58108;48.094;11.838;2022-09-17T05:56:55;5.23;;;1.27;;
70558;SDS011;58108;48.094;11.838;2022-09-17T05:59:21;2.60;;;0.90;;
70558;SDS011;58108;48.094;11.838;2022-09-17T06:01:46;3.13;;;1.03;;
70558;SDS011;58108;48.094;11.838;2022-09-17T06:04:13;2.40;;;0.55;;
70558;SDS011;58108;48.094;11.838;2022-09-17T06:06:38;2.10;;;0.60;;
70558;SDS011;58108;48.094;11.838;2022-09-17T06:09:05;3.58;;;0.70;;
70558;SDS011;58108;48.094;11.838;2022-09-17T06:11:31;4.00;;;0.60;;
70558;SDS011;58108;48.094;11.838;2022-09-17T06:13:57;3.53;;;0.60;;
70558;SDS011;58108;48.094;11.838;2022-09-17T06:16:22;2.80;;;0.63;;
70558;SDS011;58108;48.094;11.838;2022-09-17T06:18:48;2.58;;;0.50;;
70558;SDS011;58108;48.094;11.838;2022-09-17T06:21:14;2.50;;;0.67;;
70558;SDS011;58108;48.094;11.838;2022-09-17T06:23:43;3.88;;;0.70;;
70558;SDS011;58108;48.094;11.838;2022-09-17T06:26:09;4.32;;;0.47;;
70558;SDS011;58108;48.094;11.838;2022-09-17T06:28:35;2.63;;;0.20;;
70558;SDS011;58108;48.094;11.838;2022-09-17T06:31:01;4.40;;;0.77;;
70558;SDS011;58108;48.094;11.838;2022-09-17T06:33:29;2.75;;;0.68;;
70558;SDS011;58108;48.094;11.838;2022-09-17T06:35:55;1.53;;;0.30;;
70558;SDS011;58108;48.094;11.838;2022-09-17T06:38:23;3.58;;;0.60;;
70558;SDS011;58108;48.094;11.838;2022-09-17T06:40:49;4.60;;;0.80;;
70558;SDS011;58108;48.094;11.838;2022-09-17T06:43:16;4.45;;;0.60;;
70558;SDS011;58108;48.094;11.838;2022-09-17T06:45:41;1.70;;;0.50;;
70558;SDS011;58108;48.094;11.838;2022-09-17T06:48:07;2.30;;;0.35;;
70558;SDS011;58108;48.094;11.838;2022-09-17T06:50:32;5.90;;;0.80;;
70558;SDS011;58108;48.094;11.838;2022-09-17T06:52:58;3.77;;;0.80;;
70558;SDS011;58108;48.094;11.838;2022-09-17T06:55:23;2.27;;;0.60;;
70558;SDS011;58108;48.094;11.838;2022-09-17T06:57:48;2.53;;;0.70;;
70558;SDS011;58108;48.094;11.838;2022-09-17T07:00:13;2.80;;;0.77;;
70558;SDS011;58108;48.094;11.838;2022-09-17T07:02:39;2.85;;;0.60;;
70558;SDS011;58108;48.094;11.838;2022-09-17T07:05:04;2.80;;;0.77;;
70558;SDS011;58108;48.094;11.838;2022-09-17T07:07:30;5.40;;;0.80;;
70558;SDS011;58108;48.094;11.838;2022-09-17T07:09:55;3.80;;;0.83;;
70558;SDS011;58108;48.094;11.838;2022-09-17T07:12:21;3.20;;;0.60;;
70558;SDS011;58108;48.094;11.838;2022-09-17T07:14:46;3.87;;;0.70;;
70558;SDS011;58108;48.094;11.838;2022-09-17T07:17:12;4.03;;;0.63;;
70558;SDS011;58108;48.094;11.838;2022-09-17T07:19:38;1.85;;;0.40;;
70558;SDS011;58108;48.094;11.838;2022-09-17T07:22:03;2.57;;;0.60;;
70558;SDS011;58108;48.094;11.838;2022-09-17T07:24:29;2.93;;;0.40;;
70558;SDS011;58108;48.094;11.838;2022-09-17T07:26:54;2.23;;;0.60;;
70558;SDS011;58108;48.094;11.838;2022-09-17T07:29:20;2.73;;;0.63;;
70558;SDS011;58108;48.094;11.838;2022-09-17T07:31:47;3.45;;;0.65;;
70558;SDS011;58108;48.094;11.838;2022-09-17T07:34:12;3.20;;;0.50;;
70558;SDS011;58108;48.094;11.838;2022-09-17T07:36:38;3.72;;;0.68;;
70558;SDS011;58108;48.094;11.838;2022-09-17T07:39:03;3.43;;;0.73;;
70558;SDS011;58108;48.094;11.838;2022-09-17T07:41:28;4.47;;;0.77;;
70558;SDS011;58108;48.094;11.838;2022-09-17T07:43:54;3.97;;;0.83;;
70558;SDS011;58108;48.094;11.838;2022-09-17T07:46:20;4.60;;;0.70;;
70558;SDS011;58108;48.094;11.838;2022-09-17T07:48:45;3.25;;;0.63;;
70558;SDS011;58108;48.094;11.838;2022-09-17T07:51:22;3.63;;;1.00;;
70558;SDS011;58108;48.094;11.838;2022-09-17T07:53:50;3.92;;;1.00;;
70558;SDS011;58108;48.094;11.838;2022-09-17T07:56:16;2.97;;;0.77;;
70558;SDS011;58108;48.094;11.838;2022-09-17T07:58:41;1.92;;;0.50;;
70558;SDS011;58108;48.094;11.838;2022-09-17T08:01:08;1.77;;;0.33;;
70558;SDS011;58108;48.094;11.838;2022-09-17T08:03:35;1.92;;;0.40;;
70558;SDS011;58108;48.094;11.838;2022-09-17T08:06:06;3.07;;;0.37;;
70558;SDS011;58108;48.094;11.838;2022-09-17T08:08:34;3.70;;;0.88;;
70558;SDS011;58108;48.094;11.838;2022-09-17T08:11:10;2.67;;;0.70;;
70558;SDS011;58108;48.094;11.838;2022-09-17T08:13:37;2.22;;;0.30;;
70558;SDS011;58108;48.094;11.838;2022-09-17T08:16:03;3.37;;;0.60;;
70558;SDS011;58108;48.094;11.838;2022-09-17T08:18:31;2.88;;;0.32;;
70558;SDS011;58108;48.094;11.838;2022-09-17T08:21:01;4.45;;;0.80;;
70558;SDS011;58108;48.094;11.838;2022-09-17T08:23:28;3.97;;;0.67;;
70558;SDS011;58108;48.094;11.838;2022-09-17T08:25:55;4.25;;;0.50;;
70558;SDS011;58108;48.094;11.838;2022-09-17T08:28:23;1.92;;;0.32;;
70558;SDS011;58108;48.094;11.838;2022-09-17T08:30:50;4.70;;;1.15;;
70558;SDS011;58108;48.094;11.838;2022-09-17T08:33:16;3.40;;;0.65;;
70558;SDS011;58108;48.094;11.838;2022-09-17T08:35:49;1.97;;;0.30;;
70558;SDS011;58108;48.094;11.838;2022-09-17T08:38:23;3.95;;;0.73;;
70558;SDS011;58108;48.094;11.838;2022-09-17T08:41:06;5.63;;;0.40;;
70558;SDS011;58108;48.094;11.838;2022-09-17T08:46:32;2.73;;;0.67;;
70558;SDS011;58108;48.094;11.838;2022-09-17T09:00:21;5.23;;;0.70;;
70558;SDS011;58108;48.094;11.838;2022-09-17T09:05:50;2.13;;;0.60;;
70558;SDS011;58108;48.094;11.838;2022-09-17T09:10:52;2.25;;;0.40;;
70558;SDS011;58108;48.094;11.838;2022-09-17T09:13:20;3.10;;;0.50;;
70558;SDS011;58108;48.094;11.838;2022-09-17T09:15:54;3.13;;;0.47;;
70558;SDS011;58108;48.094;11.838;2022-09-17T09:18:24;4.55;;;0.43;;
70558;SDS011;58108;48.094;11.838;2022-09-17T09:20:53;3.55;;;0.55;;
70558;SDS011;58108;48.094;11.838;2022-09-17T09:28:55;3.83;;;0.40;;
70558;SDS011;58108;48.094;11.838;2022-09-17T09:31:43;4.35;;;1.15;;
70558;SDS011;58108;48.094;11.838;2022-09-17T09:34:17;5.03;;;0.68;;
70558;SDS011;58108;48.094;11.838;2022-09-17T09:36:43;2.13;;;0.23;;
70558;SDS011;58108;48.094;11.838;2022-09-17T09:39:22;6.10;;;0.90;;
70558;SDS011;58108;48.094;11.838;2022-09-17T09:41:57;2.63;;;0.50;;
70558;SDS011;58108;48.094;11.838;2022-09-17T09:44:28;3.03;;;0.73;;
70558;SDS011;58108;48.094;11.838;2022-09-17T09:47:10;4.00;;;0.47;;
70558;SDS011;58108;48.094;11.838;2022-09-17T09:49:48;2.15;;;0.32;;
70558;SDS011;58108;48.094;11.838;2022-09-17T09:55:41;1.40;;;0.13;;
70558;SDS011;58108;48.094;11.838;2022-09-17T10:01:14;3.53;;;0.98;;
70558;SDS011;58108;48.094;11.838;2022-09-17T10:03:44;2.97;;;0.47;;
70558;SDS011;58108;48.094;11.838;2022-09-17T10:06:11;3.63;;;0.85;;
70558;SDS011;58108;48.094;11.838;2022-09-17T10:13:48;3.45;;;0.90;;
70558;SDS011;58108;48.094;11.838;2022-09-17T10:16:18;3.10;;;0.93;;
70558;SDS011;58108;48.094;11.838;2022-09-17T10:18:47;9.70;;;2.95;;
70558;SDS011;58108;48.094;11.838;2022-09-17T10:21:57;7.25;;;1.55;;
70558;SDS011;58108;48.094;11.838;2022-09-17T10:24:09;5.43;;;1.63;;
70558;SDS011;58108;48.094;11.838;2022-09-17T10:26:49;3.28;;;1.08;;
70558;SDS011;58108;48.094;11.838;2022-09-17T10:29:16;3.13;;;0.90;;
70558;SDS011;58108;48.094;11.838;2022-09-17T10:31:48;3.50;;;1.05;;
70558;SDS011;58108;48.094;11.838;2022-09-17T10:34:18;5.40;;;1.35;;
70558;SDS011;58108;48.094;11.838;2022-09-17T10:36:45;3.38;;;1.00;;
70558;SDS011;58108;48.094;11.838;2022-09-17T10:44:50;4.28;;;1.00;;
70558;SDS011;58108;48.094;11.838;2022-09-17T10:47:23;3.97;;;1.05;;
70558;SDS011;58108;48.094;11.838;2022-09-17T10:50:00;3.95;;;1.52;;
70558;SDS011;58108;48.094;11.838;2022-09-17T10:52:30;4.30;;;1.10;;
70558;SDS011;58108;48.094;11.838;2022-09-17T10:57:55;4.57;;;1.10;;
70558;SDS011;58108;48.094;11.838;2022-09-17T11:00:25;3.60;;;1.30;;
70558;SDS011;58108;48.094;11.838;2022-09-17T11:11:57;3.50;;;1.05;;
70558;SDS011;58108;48.094;11.838;2022-09-17T11:22:46;4.45;;;0.80;;
70558;SDS011;58108;48.094;11.838;2022-09-17T11:28:23;1.88;;;0.40;;
70558;SDS011;58108;48.094;11.838;2022-09-17T11:33:47;3.65;;;0.80;;
70558;SDS011;58108;48.094;11.838;2022-09-17T11:39:17;2.05;;;0.60;;
70558;SDS011;58108;48.094;11.838;2022-09-17T11:41:47;3.90;;;0.80;;
70558;SDS011;58108;48.094;11.838;2022-09-17T11:49:50;4.13;;;0.50;;
70558;SDS011;58108;48.094;11.838;2022-09-17T11:55:00;1.92;;;0.25;;
70558;SDS011;58108;48.094;11.838;2022-09-17T11:57:36;2.38;;;0.38;;
70558;SDS011;58108;48.094;11.838;2022-09-17T12:02:53;6.47;;;0.65;;
70558;SDS011;58108;48.094;11.838;2022-09-17T12:05:39;3.40;;;0.70;;
70558;SDS011;58108;48.094;11.838;2022-09-17T12:08:18;2.58;;;0.50;;
70558;SDS011;58108;48.094;11.838;2022-09-17T12:11:32;3.65;;;1.10;;
70558;SDS011;58108;48.094;11.838;2022-09-17T12:16:58;2.88;;;0.50;;
70558;SDS011;58108;48.094;11.838;2022-09-17T12:22:03;4.43;;;0.80;;
70558;SDS011;58108;48.094;11.838;2022-09-17T12:24:34;2.22;;;0.52;;
70558;SDS011;58108;48.094;11.838;2022-09-17T12:27:03;2.53;;;0.33;;
70558;SDS011;58108;48.094;11.838;2022-09-17T12:35:22;2.15;;;0.50;;
70558;SDS011;58108;48.094;11.838;2022-09-17T12:41:10;3.33;;;0.30;;
70558;SDS011;58108;48.094;11.838;2022-09-17T12:57:42;4.32;;;0.75;;
70558;SDS011;58108;48.094;11.838;2022-09-17T13:00:13;1.65;;;0.60;;
70558;SDS011;58108;48.094;11.838;2022-09-17T13:05:26;3.35;;;0.50;;
70558;SDS011;58108;48.094;11.838;2022-09-17T13:13:47;3.08;;;0.60;;
70558;SDS011;58108;48.094;11.838;2022-09-17T13:24:13;3.13;;;0.77;;
70558;SDS011;58108;48.094;11.838;2022-09-17T13:26:41;3.58;;;0.68;;
70558;SDS011;58108;48.094;11.838;2022-09-17T13:29:09;3.92;;;0.77;;
70558;SDS011;58108;48.094;11.838;2022-09-17T13:34:03;2.20;;;0.27;;
70558;SDS011;58108;48.094;11.838;2022-09-17T13:36:53;2.97;;;0.75;;
70558;SDS011;58108;48.094;11.838;2022-09-17T13:42:15;2.35;;;0.50;;
70558;SDS011;58108;48.094;11.838;2022-09-17T13:44:46;2.33;;;0.80;;
70558;SDS011;58108;48.094;11.838;2022-09-17T13:47:35;3.65;;;0.43;;
70558;SDS011;58108;48.094;11.838;2022-09-17T13:50:09;2.25;;;0.57;;
70558;SDS011;58108;48.094;11.838;2022-09-17T13:52:48;3.10;;;0.57;;
70558;SDS011;58108;48.094;11.838;2022-09-17T13:57:58;2.35;;;0.40;;
70558;SDS011;58108;48.094;11.838;2022-09-17T14:13:46;2.40;;;0.60;;
70558;SDS011;58108;48.094;11.838;2022-09-17T14:21:57;4.80;;;0.73;;
70558;SDS011;58108;48.094;11.838;2022-09-17T14:35:32;1.02;;;0.20;;
70558;SDS011;58108;48.094;11.838;2022-09-17T14:38:19;1.95;;;0.30;;
70558;SDS011;58108;48.094;11.838;2022-09-17T14:41:13;1.92;;;0.32;;
70558;SDS011;58108;48.094;11.838;2022-09-17T14:43:57;1.42;;;0.20;;
70558;SDS011;58108;48.094;11.838;2022-09-17T14:46:30;1.52;;;0.30;;
70558;SDS011;58108;48.094;11.838;2022-09-17T14:51:50;2.17;;;0.30;;
70558;SDS011;58108;48.094;11.838;2022-09-17T14:54:17;1.30;;;0.30;;
70558;SDS011;58108;48.094;11.838;2022-09-17T14:56:49;1.52;;;0.30;;
70558;SDS011;58108;48.094;11.838;2022-09-17T14:59:21;2.38;;;0.40;;
70558;SDS011;58108;48.094;11.838;2022-09-17T15:01:51;3.38;;;0.50;;
70558;SDS011;58108;48.094;11.838;2022-09-17T15:04:24;1.58;;;0.30;;
70558;SDS011;58108;48.094;11.838;2022-09-17T15:06:50;2.37;;;0.30;;
70558;SDS011;58108;48.094;11.838;2022-09-17T15:09:17;1.42;;;0.30;;
70558;SDS011;58108;48.094;11.838;2022-09-17T15:11:46;1.95;;;0.38;;
70558;SDS011;58108;48.094;11.838;2022-09-17T15:14:16;2.95;;;0.38;;
70558;SDS011;58108;48.094;11.838;2022-09-17T15:16:52;1.63;;;0.20;;
70558;SDS011;58108;48.094;11.838;2022-09-17T15:19:29;2.92;;;0.40;;
70558;SDS011;58108;48.094;11.838;2022-09-17T15:22:02;2.15;;;0.40;;
70558;SDS011;58108;48.094;11.838;2022-09-17T15:27:33;2.85;;;0.40;;
70558;SDS011;58108;48.094;11.838;2022-09-17T15:30:08;3.08;;;0.43;;
70558;SDS011;58108;48.094;11.838;2022-09-17T15:32:54;3.20;;;0.50;;
70558;SDS011;58108;48.094;11.838;2022-09-17T15:35:22;3.10;;;0.40;;
70558;SDS011;58108;48.094;11.838;2022-09-17T15:37:53;2.58;;;0.40;;
70558;SDS011;58108;48.094;11.838;2022-09-17T15:40:24;3.35;;;0.30;;
70558;SDS011;58108;48.094;11.838;2022-09-17T15:42:50;1.92;;;0.30;;
70558;SDS011;58108;48.094;11.838;2022-09-17T15:45:21;1.58;;;0.28;;
70558;SDS011;58108;48.094;11.838;2022-09-17T15:47:59;1.60;;;0.20;;
70558;SDS011;58108;48.094;11.838;2022-09-17T15:58:34;1.50;;;0.15;;
70558;SDS011;58108;48.094;11.838;2022-09-17T16:06:06;1.37;;;0.10;;
70558;SDS011;58108;48.094;11.838;2022-09-17T16:11:21;1.75;;;0.20;;
70558;SDS011;58108;48.094;11.838;2022-09-17T16:13:52;3.25;;;0.20;;
70558;SDS011;58108;48.094;11.838;2022-09-17T16:16:19;3.27;;;0.20;;
70558;SDS011;58108;48.094;11.838;2022-09-17T16:18:46;1.20;;;0.10;;
70558;SDS011;58108;48.094;11.838;2022-09-17T16:21:13;1.50;;;0.20;;
70558;SDS011;58108;48.094;11.838;2022-09-17T16:23:39;1.60;;;0.20;;
70558;SDS011;58108;48.094;11.838;2022-09-17T16:26:05;4.77;;;0.43;;
70558;SDS011;58108;48.094;11.838;2022-09-17T16:28:34;1.60;;;0.30;;
70558;SDS011;58108;48.094;11.838;2022-09-17T16:31:00;1.60;;;0.20;;
70558;SDS011;58108;48.094;11.838;2022-09-17T16:33:25;2.57;;;0.37;;
70558;SDS011;58108;48.094;11.838;2022-09-17T16:35:55;2.45;;;0.40;;
70558;SDS011;58108;48.094;11.838;2022-09-17T16:38:20;2.25;;;0.30;;
70558;SDS011;58108;48.094;11.838;2022-09-17T16:40:46;1.93;;;0.30;;
70558;SDS011;58108;48.094;11.838;2022-09-17T16:43:11;2.00;;;0.30;;
70558;SDS011;58108;48.094;11.838;2022-09-17T16:45:37;1.45;;;0.13;;
70558;SDS011;58108;48.094;11.838;2022-09-17T16:48:03;1.73;;;0.20;;
70558;SDS011;58108;48.094;11.838;2022-09-17T16:50:29;1.27;;;0.20;;
70558;SDS011;58108;48.094;11.838;2022-09-17T16:52:55;1.87;;;0.20;;
70558;SDS011;58108;48.094;11.838;2022-09-17T16:55:20;1.67;;;0.20;;
70558;SDS011;58108;48.094;11.838;2022-09-17T16:57:45;2.47;;;0.20;;
70558;SDS011;58108;48.094;11.838;2022-09-17T17:00:13;1.40;;;0.20;;
70558;SDS011;58108;48.094;11.838;2022-09-17T17:02:41;2.05;;;0.20;;
70558;SDS011;58108;48.094;11.838;2022-09-17T17:05:07;1.35;;;0.10;;
70558;SDS011;58108;48.094;11.838;2022-09-17T17:07:34;1.65;;;0.20;;
70558;SDS011;58108;48.094;11.838;2022-09-17T17:10:00;1.48;;;0.20;;
70558;SDS011;58108;48.094;11.838;2022-09-17T17:12:27;1.30;;;0.10;;
70558;SDS011;58108;48.094;11.838;2022-09-17T17:14:53;2.45;;;0.10;;
70558;SDS011;58108;48.094;11.838;2022-09-17T17:17:18;1.00;;;0.10;;
70558;SDS011;58108;48.094;11.838;2022-09-17T17:19:45;1.02;;;0.10;;
70558;SDS011;58108;48.094;11.838;2022-09-17T17:22:13;1.40;;;0.10;;
70558;SDS011;58108;48.094;11.838;2022-09-17T17:24:39;1.30;;;0.10;;
70558;SDS011;58108;48.094;11.838;2022-09-17T17:27:05;0.95;;;0.13;;
70558;SDS011;58108;48.094;11.838;2022-09-17T17:29:32;1.00;;;0.10;;
70558;SDS011;58108;48.094;11.838;2022-09-17T17:31:59;0.88;;;0.10;;
70558;SDS011;58108;48.094;11.838;2022-09-17T17:34:24;1.00;;;0.10;;
70558;SDS011;58108;48.094;11.838;2022-09-17T17:36:50;1.63;;;0.17;;
70558;SDS011;58108;48.094;11.838;2022-09-17T17:39:15;1.27;;;0.10;;
70558;SDS011;58108;48.094;11.838;2022-09-17T17:41:41;1.30;;;0.10;;
70558;SDS011;58108;48.094;11.838;2022-09-17T17:44:07;2.10;;;0.23;;
70558;SDS011;58108;48.094;11.838;2022-09-17T17:46:33;1.40;;;0.20;;
70558;SDS011;58108;48.094;11.838;2022-09-17T17:48:58;1.77;;;0.30;;
70558;SDS011;58108;48.094;11.838;2022-09-17T17:51:24;3.23;;;0.30;;
70558;SDS011;58108;48.094;11.838;2022-09-17T17:53:51;1.10;;;0.10;;
70558;SDS011;58108;48.094;11.838;2022-09-17T17:56:19;1.60;;;0.30;;
70558;SDS011;58108;48.094;11.838;2022-09-17T17:58:45;2.20;;;0.30;;
70558;SDS011;58108;48.094;11.838;2022-09-17T18:01:14;1.50;;;0.20;;
70558;SDS011;58108;48.094;11.838;2022-09-17T18:03:42;1.77;;;0.10;;
70558;SDS011;58108;48.094;11.838;2022-09-17T18:06:07;1.10;;;0.10;;
70558;SDS011;58108;48.094;11.838;2022-09-17T18:08:36;1.30;;;0.10;;
70558;SDS011;58108;48.094;11.838;2022-09-17T18:11:03;1.30;;;0.10;;
70558;SDS011;58108;48.094;11.838;2022-09-17T18:13:32;1.30;;;0.20;;
70558;SDS011;58108;48.094;11.838;2022-09-17T18:16:02;1.73;;;0.20;;
70558;SDS011;58108;48.094;11.838;2022-09-17T18:18:35;1.98;;;0.30;;
70558;SDS011;58108;48.094;11.838;2022-09-17T18:21:03;1.98;;;0.28;;
70558;SDS011;58108;48.094;11.838;2022-09-17T18:23:31;2.60;;;0.30;;
70558;SDS011;58108;48.094;11.838;2022-09-17T18:25:58;1.48;;;0.20;;
70558;SDS011;58108;48.094;11.838;2022-09-17T18:28:25;1.70;;;0.20;;
70558;SDS011;58108;48.094;11.838;2022-09-17T18:30:51;1.80;;;0.20;;
70558;SDS011;58108;48.094;11.838;2022-09-17T18:33:22;2.77;;;0.70;;